Observation data for Post on 03/23/2019      Previous  Date  Next       Current Mesonet Observations  Soil Data  Daily Summary Page  Observations in Plain Language
KPT1 230500Z 19011G18KT 16/10 A2996 RMK A01 T01610101  RH  069%=      5-min Rain = 0
KPT1 230505Z 20011G17KT 16/10 A2996 RMK A01 T01610101  RH  069%=      5-min Rain = 0
KPT1 230510Z 20011G16KT 16/10 A2996 RMK A01 T01600101  RH  069%=      5-min Rain = 0
KPT1 230515Z 20011KT 16/10 A2996 RMK A01 T01590102  RH  070%=      5-min Rain = 0
KPT1 230520Z 20010KT 16/10 A2996 RMK A01 T01570101  RH  071%=      5-min Rain = 0
KPT1 230525Z 20011G17KT 16/10 A2996 RMK A01 T01560102  RH  071%=      5-min Rain = 0
KPT1 230530Z 20015G23KT 16/10 A2996 RMK A01 T01580103  RH  071%=      5-min Rain = 0
KPT1 230535Z 19011G16KT 16/10 A2996 RMK A01 T01580103  RH  071%=      5-min Rain = 0
KPT1 230540Z 20012G21KT 16/10 A2996 RMK A01 T01570104  RH  072%=      5-min Rain = 0
KPT1 230545Z 20012G18KT 16/10 A2996 RMK A01 T01570104  RH  072%=      5-min Rain = 0
KPT1 230550Z 20010KT 16/10 A2996 RMK A01 T01550104  RH  073%=      5-min Rain = 0
KPT1 230555Z 20009KT 15/10 A2996 RMK A01 T01530104  RH  074%=      5-min Rain = 0
KPT1 230600Z 21012KT 15/11 A2996 RMK A01 T01530105  RH  074%=      5-min Rain = 0
KPT1 230605Z 20010KT 15/11 A2996 RMK A01 T01520105  RH  075%=      5-min Rain = 0
KPT1 230610Z 20009KT 15/11 A2996 RMK A01 T01510105  RH  075%=      5-min Rain = 0
KPT1 230615Z 20011KT 15/11 A2996 RMK A01 T01510106  RH  076%=      5-min Rain = 0
KPT1 230620Z 19011G17KT 15/11 A2996 RMK A01 T01520107  RH  076%=      5-min Rain = 0
KPT1 230625Z 19011G16KT 15/11 A2996 RMK A01 T01520107  RH  076%=      5-min Rain = 0
KPT1 230630Z 20010KT 15/11 A2996 RMK A01 T01510108  RH  077%=      5-min Rain = 0
KPT1 230635Z 20009G14KT 15/11 A2996 RMK A01 T01500108  RH  077%=      5-min Rain = 0
KPT1 230640Z 20009KT 15/11 A2996 RMK A01 T01490108  RH  078%=      5-min Rain = 0
KPT1 230645Z 19011KT 15/11 A2996 RMK A01 T01490109  RH  078%=      5-min Rain = 0
KPT1 230650Z 20013KT 15/11 A2996 RMK A01 T01510110  RH  078%=      5-min Rain = 0
KPT1 230655Z 20012G17KT 15/11 A2996 RMK A01 T01500110  RH  078%=      5-min Rain = 0
KPT1 230700Z 19013KT 15/11 A2995 RMK A01 T01500111  RH  079%=      5-min Rain = 0
KPT1 230705Z 20012KT 15/11 A2995 RMK A01 T01490111  RH  079%=      5-min Rain = 0
KPT1 230710Z 20011KT 15/11 A2995 RMK A01 T01490111  RH  080%=      5-min Rain = 0
KPT1 230715Z 20011G16KT 15/11 A2995 RMK A01 T01490112  RH  080%=      5-min Rain = 0
KPT1 230720Z 20012G18KT 15/11 A2995 RMK A01 T01490112  RH  080%=      5-min Rain = 0
KPT1 230725Z 20011G16KT 15/11 A2995 RMK A01 T01480112  RH  081%=      5-min Rain = 0
KPT1 230730Z 20011G16KT 15/11 A2995 RMK A01 T01470113  RH  081%=      5-min Rain = 0
KPT1 230735Z 19011G16KT 15/11 A2995 RMK A01 T01460113  RH  082%=      5-min Rain = 0
KPT1 230740Z 20012G17KT 15/11 A2995 RMK A01 T01460113  RH  082%=      5-min Rain = 0
KPT1 230745Z 20010G16KT 15/11 A2995 RMK A01 T01450113  RH  083%=      5-min Rain = 0
KPT1 230750Z 20012G17KT 15/11 A2995 RMK A01 T01460114  RH  083%=      5-min Rain = 0
KPT1 230755Z 20013G19KT 15/11 A2995 RMK A01 T01460114  RH  083%=      5-min Rain = 0
KPT1 230800Z 20013G19KT 15/12 A2995 RMK A01 T01460115  RH  083%=      5-min Rain = 0
KPT1 230805Z 20012G19KT 15/12 A2995 RMK A01 T01450115  RH  084%=      5-min Rain = 0
KPT1 230810Z 20011G16KT 14/12 A2995 RMK A01 T01440115  RH  084%=      5-min Rain = 0
KPT1 230815Z 20013G19KT 14/12 A2995 RMK A01 T01440116  RH  084%=      5-min Rain = 0
KPT1 230820Z 20012G18KT 14/12 A2995 RMK A01 T01430116  RH  085%=      5-min Rain = 0
KPT1 230825Z 21011G16KT 14/12 A2995 RMK A01 T01430116  RH  085%=      5-min Rain = 0
KPT1 230830Z 21011KT 14/12 A2995 RMK A01 T01430116  RH  086%=      5-min Rain = 0
KPT1 230835Z 21011G17KT 14/12 A2995 RMK A01 T01430117  RH  086%=      5-min Rain = 0
KPT1 230840Z 21011G17KT 14/12 A2995 RMK A01 T01430117  RH  086%=      5-min Rain = 0
KPT1 230845Z 21012G18KT 14/12 A2995 RMK A01 T01430117  RH  086%=      5-min Rain = 0
KPT1 230850Z 21012G17KT 14/12 A2994 RMK A01 T01440117  RH  085%=      5-min Rain = 0
KPT1 230855Z 22011G16KT 14/12 A2994 RMK A01 T01440117  RH  086%=      5-min Rain = 0
KPT1 230900Z 22012KT 14/12 A2994 RMK A01 T01430117  RH  086%=      5-min Rain = 0
KPT1 230905Z 22011G16KT 14/12 A2994 RMK A01 T01420117  RH  086%=      5-min Rain = 0
KPT1 230910Z 22011KT 14/12 A2994 RMK A01 T01420117  RH  087%=      5-min Rain = 0
KPT1 230915Z 23010KT 14/12 A2994 RMK A01 T01410117  RH  087%=      5-min Rain = 0
KPT1 230920Z 23009G14KT 14/12 A2994 RMK A01 T01380116  RH  088%=      5-min Rain = 0
KPT1 230925Z 23010G15KT 14/12 A2994 RMK A01 T01380117  RH  089%=      5-min Rain = 0
KPT1 230930Z 23011KT 14/12 A2994 RMK A01 T01390118  RH  089%=      5-min Rain = 0
KPT1 230935Z 23010G15KT 14/12 A2994 RMK A01 T01380118  RH  089%=      5-min Rain = 0
KPT1 230940Z 24011KT 14/12 A2994 RMK A01 T01400119  RH  089%=      5-min Rain = 0
KPT1 230945Z 24011KT 14/12 A2994 RMK A01 T01360117  RH  090%=      5-min Rain = 0
KPT1 230950Z 25011KT 13/12 A2994 RMK A01 T01330116  RH  091%=      5-min Rain = 0
KPT1 230955Z 25011KT 13/12 A2994 RMK A01 T01310116  RH  092%=      5-min Rain = 0
KPT1 231000Z 25011KT 13/12 A2994 RMK A01 T01300117  RH  093%=      5-min Rain = 0
KPT1 231005Z 25012G17KT 13/12 A2995 RMK A01 T01300117  RH  094%=      5-min Rain = 0
KPT1 231010Z 24012KT 13/12 A2995 RMK A01 T01300117  RH  093%=      5-min Rain = 0
KPT1 231015Z 24012KT 13/12 A2994 RMK A01 T01300117  RH  093%=      5-min Rain = 0
KPT1 231020Z 24012KT 13/12 A2995 RMK A01 T01310117  RH  093%=      5-min Rain = 0
KPT1 231025Z 24012KT 13/12 A2995 RMK A01 T01310117  RH  093%=      5-min Rain = 0
KPT1 231030Z 24012KT 13/12 A2995 RMK A01 T01310117  RH  093%=      5-min Rain = 0
KPT1 231035Z 24013G19KT 13/12 A2995 RMK A01 T01330118  RH  093%=      5-min Rain = 0
KPT1 231040Z 24012G18KT 13/12 A2995 RMK A01 T01340118  RH  092%=      5-min Rain = 0
KPT1 231045Z 25013KT 14/12 A2995 RMK A01 T01350119  RH  092%=      5-min Rain = 0
KPT1 231050Z 24013G18KT 14/12 A2995 RMK A01 T01350119  RH  092%=      5-min Rain = 0
KPT1 231055Z 25014KT 14/12 A2995 RMK A01 T01360119  RH  091%=      5-min Rain = 0
KPT1 231100Z 24015G20KT 14/12 A2995 RMK A01 T01360118  RH  091%=      5-min Rain = 0
KPT1 231105Z 24014G19KT 14/12 A2995 RMK A01 T01360118  RH  090%=      5-min Rain = 0
KPT1 231110Z 24015G22KT 14/12 A2995 RMK A01 T01350117  RH  090%=      5-min Rain = 0
KPT1 231115Z 24012G17KT 13/12 A2996 RMK A01 T01330116  RH  091%=      5-min Rain = 0
KPT1 231120Z 24013G18KT 13/12 A2996 RMK A01 T01320116  RH  091%=      5-min Rain = 0
KPT1 231125Z 24012KT 13/12 A2996 RMK A01 T01310115  RH  092%=      5-min Rain = 0
KPT1 231130Z 24012KT 13/11 A2996 RMK A01 T01290114  RH  092%=      5-min Rain = 0
KPT1 231135Z 24012G17KT 13/11 A2996 RMK A01 T01270114  RH  093%=      5-min Rain = 0
KPT1 231140Z 23012G19KT 13/11 A2996 RMK A01 T01260114  RH  094%=      5-min Rain = 0
KPT1 231145Z 23011KT 12/11 A2996 RMK A01 T01240113  RH  094%=      5-min Rain = 0
KPT1 231150Z 24011KT 12/11 A2996 RMK A01 T01240113  RH  095%=      5-min Rain = 0
KPT1 231155Z 24010G15KT 12/11 A2997 RMK A01 T01220112  RH  095%=      5-min Rain = 0
KPT1 231200Z 24009G14KT 12/11 A2997 RMK A01 T01200111  RH  096%=      5-min Rain = 0
KPT1 231205Z 24009KT 12/11 A2997 RMK A01 T01190110  RH  096%=      5-min Rain = 0
KPT1 231210Z 24007G12KT 12/11 A2998 RMK A01 T01170109  RH  096%=      5-min Rain = 0
KPT1 231215Z 23006KT 12/11 A2998 RMK A01 T01150108  RH  097%=      5-min Rain = 0
KPT1 231220Z 22007KT 11/11 A2998 RMK A01 T01130107  RH  098%=      5-min Rain = 0
KPT1 231225Z 22008KT 11/11 A2998 RMK A01 T01130107  RH  098%=      5-min Rain = 0
KPT1 231230Z 21008KT 11/11 A2998 RMK A01 T01120107  RH  098%=      5-min Rain = 0
KPT1 231235Z 21008KT 11/11 A2998 RMK A01 T01120107  RH  099%=      5-min Rain = 0
KPT1 231240Z 21007KT 11/11 A2998 RMK A01 T01100106  RH  099%=      5-min Rain = 0
KPT1 231245Z 22008KT 11/11 A2998 RMK A01 T01100107  RH  100%=      5-min Rain = 0
KPT1 231250Z 22007KT 11/11 A2998 RMK A01 T01100107  RH  100%=      5-min Rain = 0
KPT1 231255Z 23008KT 11/11 A2998 RMK A01 T01090106  RH  100%=      5-min Rain = 0
KPT1 231300Z 23008G13KT 11/11 A2998 RMK A01 T01080105  RH  099%=      5-min Rain = 0
KPT1 231305Z 25009KT 11/10 A2998 RMK A01 T01090104  RH  098%=      5-min Rain = 0
KPT1 231310Z 25010KT 11/10 A2999 RMK A01 T01090102  RH  098%=      5-min Rain = 0
KPT1 231315Z 26010KT 11/10 A2999 RMK A01 T01090102  RH  097%=      5-min Rain = 0
KPT1 231320Z 26010KT 11/10 A2999 RMK A01 T01090100  RH  096%=      5-min Rain = 0
KPT1 231325Z 26010KT 11/10 A2999 RMK A01 T01090097  RH  094%=      5-min Rain = 0
KPT1 231330Z 26011G18KT 11/09 A2999 RMK A01 T01090090  RH  090%=      5-min Rain = 0
KPT1 231335Z 27012G17KT 11/08 A2999 RMK A01 T01120083  RH  084%=      5-min Rain = 0
KPT1 231340Z 27013KT 11/08 A2999 RMK A01 T01140077  RH  079%=      5-min Rain = 0
KPT1 231345Z 27012KT 12/07 A2999 RMK A01 T01150073  RH  076%=      5-min Rain = 0
KPT1 231350Z 27013G18KT 12/06 A30 RMK A01 T01190062  RH  069%=      5-min Rain = 0
KPT1 231355Z 27011KT 12/06 A30 RMK A01 T01220057  RH  065%=      5-min Rain = 0
KPT1 231400Z 28011G18KT 13/04 A30 RMK A01 T01270044  RH  057%=      5-min Rain = 0
KPT1 231405Z 28012G17KT 14/03 A30 RMK A01 T01360027  RH  048%=      5-min Rain = 0
KPT1 231410Z 28011G17KT 14/02 A3001 RMK A01 T01420020  RH  044%=      5-min Rain = 0
KPT1 231415Z 28011G17KT 15/02 A3001 RMK A01 T01450016  RH  042%=      5-min Rain = 0
KPT1 231420Z 29010G15KT 15/02 A3001 RMK A01 T01470018  RH  042%=      5-min Rain = 0
KPT1 231425Z 28011G16KT 15/02 A3002 RMK A01 T01500015  RH  040%=      5-min Rain = 0
KPT1 231430Z 29011G16KT 15/01 A3002 RMK A01 T01540010  RH  038%=      5-min Rain = 0
KPT1 231435Z 29012KT 16/01 A3002 RMK A01 T01590008  RH  036%=      5-min Rain = 0
KPT1 231440Z 29013G18KT 16/01 A3002 RMK A01 T01620006  RH  035%=      5-min Rain = 0
KPT1 231445Z 29012G17KT 16/00 A3002 RMK A01 T01640004  RH  034%=      5-min Rain = 0
KPT1 231450Z 29014G19KT 17/00 A3003 RMK A01 T01680000  RH  032%=      5-min Rain = 0
KPT1 231455Z 29015G20KT 17/M00 A3003 RMK A01 T01701003  RH  031%=      5-min Rain = 0
KPT1 231500Z 29015G21KT 17/M01 A3003 RMK A01 T01711009  RH  030%=      5-min Rain = 0
KPT1 231505Z 29013G18KT 18/M01 A3003 RMK A01 T01751008  RH  029%=      5-min Rain = 0
KPT1 231510Z 29015G21KT 18/M01 A3003 RMK A01 T01751012  RH  028%=      5-min Rain = 0
KPT1 231515Z 29014G20KT 18/M01 A3003 RMK A01 T01761008  RH  029%=      5-min Rain = 0
KPT1 231520Z 29016G21KT 18/M02 A3002 RMK A01 T01791018  RH  026%=      5-min Rain = 0
KPT1 231525Z 30016KT 18/M03 A3002 RMK A01 T01821030  RH  024%=      5-min Rain = 0
KPT1 231530Z 29012G18KT 19/M03 A3002 RMK A01 T01881027  RH  023%=      5-min Rain = 0
KPT1 231535Z 29014G20KT 19/M03 A3002 RMK A01 T01871031  RH  023%=      5-min Rain = 0
KPT1 231540Z 30015G22KT 19/M03 A3002 RMK A01 T01861034  RH  022%=      5-min Rain = 0
KPT1 231545Z 29013G19KT 19/M03 A3002 RMK A01 T01891033  RH  022%=      5-min Rain = 0
KPT1 231550Z 30016G21KT 19/M04 A3002 RMK A01 T01901038  RH  021%=      5-min Rain = 0
KPT1 231555Z 29014G20KT 19/M04 A3002 RMK A01 T01921037  RH  021%=      5-min Rain = 0
KPT1 231600Z 29016G23KT 19/M04 A3002 RMK A01 T01901041  RH  021%=      5-min Rain = 0
KPT1 231605Z 29014G20KT 19/M03 A3002 RMK A01 T01921034  RH  022%=      5-min Rain = 0
KPT1 231610Z 29014G20KT 20/M04 A3002 RMK A01 T01951035  RH  021%=      5-min Rain = 0
KPT1 231615Z 29015G20KT 19/M04 A3002 RMK A01 T01931040  RH  021%=      5-min Rain = 0
KPT1 231620Z 29015G20KT 20/M04 A3002 RMK A01 T01951040  RH  020%=      5-min Rain = 0
KPT1 231625Z 28016G22KT 19/M04 A3002 RMK A01 T01931042  RH  020%=      5-min Rain = 0
KPT1 231630Z 30013G19KT 20/M03 A3003 RMK A01 T01961030  RH  022%=      5-min Rain = 0
KPT1 231635Z 29016G22KT 20/M03 A3002 RMK A01 T01971033  RH  021%=      5-min Rain = 0
KPT1 231640Z 28014G20KT 20/M03 A3002 RMK A01 T01971034  RH  021%=      5-min Rain = 0
KPT1 231645Z 29014G20KT 20/M04 A3002 RMK A01 T01951040  RH  020%=      5-min Rain = 0
KPT1 231650Z 29012G19KT 20/M03 A3002 RMK A01 T01991033  RH  021%=      5-min Rain = 0
KPT1 231655Z 28014G20KT 20/M04 A3002 RMK A01 T02021035  RH  020%=      5-min Rain = 0
KPT1 231700Z 28013G18KT 20/M04 A3002 RMK A01 T02031036  RH  020%=      5-min Rain = 0
KPT1 231705Z 29014G19KT 21/M04 A3002 RMK A01 T02061036  RH  020%=      5-min Rain = 0
KPT1 231710Z 28015KT 20/M04 A3002 RMK A01 T02011041  RH  019%=      5-min Rain = 0
KPT1 231715Z 29013G19KT 20/M04 A3002 RMK A01 T02041038  RH  019%=      5-min Rain = 0
KPT1 231720Z 29014G20KT 20/M04 A3002 RMK A01 T02031043  RH  019%=      5-min Rain = 0
KPT1 231725Z 27014G19KT 20/M04 A3002 RMK A01 T02041044  RH  019%=      5-min Rain = 0
KPT1 231730Z 28013G18KT 21/M04 A3002 RMK A01 T02091043  RH  018%=      5-min Rain = 0
KPT1 231735Z 28014G20KT 21/M04 A3002 RMK A01 T02061044  RH  018%=      5-min Rain = 0
KPT1 231740Z 27011G20KT 21/M04 A3002 RMK A01 T02081044  RH  018%=      5-min Rain = 0
KPT1 231745Z 28011G20KT 21/M04 A3002 RMK A01 T02101044  RH  018%=      5-min Rain = 0
KPT1 231750Z 26012G17KT 22/M04 A3002 RMK A01 T02151041  RH  018%=      5-min Rain = 0
KPT1 231755Z 27013G19KT 21/M04 A3001 RMK A01 T02131044  RH  018%=      5-min Rain = 0
KPT1 231800Z 28012G18KT 21/M05 A3001 RMK A01 T02121046  RH  018%=      5-min Rain = 0
KPT1 231805Z 27013G18KT 22/M04 A3001 RMK A01 T02171042  RH  017%=      5-min Rain = 0
KPT1 231810Z 27012G19KT 22/M05 A30 RMK A01 T02171045  RH  017%=      5-min Rain = 0
KPT1 231815Z 27013G18KT 22/M04 A30 RMK A01 T02211044  RH  017%=      5-min Rain = 0
KPT1 231820Z 26015G21KT 22/M05 A30 RMK A01 T02161049  RH  017%=      5-min Rain = 0
KPT1 231825Z 26012G18KT 22/M05 A2999 RMK A01 T02211046  RH  017%=      5-min Rain = 0
KPT1 231830Z 27013G20KT 22/M05 A2999 RMK A01 T02241045  RH  016%=      5-min Rain = 0
KPT1 231835Z 28011KT 22/M05 A2999 RMK A01 T02221047  RH  016%=      5-min Rain = 0
KPT1 231840Z 26013KT 22/M05 A2999 RMK A01 T02211048  RH  016%=      5-min Rain = 0
KPT1 231845Z 26013G18KT 23/M05 A2999 RMK A01 T02251049  RH  016%=      5-min Rain = 0
KPT1 231850Z 25014G20KT 22/M05 A2998 RMK A01 T02241049  RH  016%=      5-min Rain = 0
KPT1 231855Z 26012G18KT 22/M05 A2998 RMK A01 T02241049  RH  016%=      5-min Rain = 0
KPT1 231900Z 25013KT 23/M05 A2998 RMK A01 T02301045  RH  016%=      5-min Rain = 0
KPT1 231905Z 25013G18KT 23/M05 A2998 RMK A01 T02281047  RH  016%=      5-min Rain = 0
KPT1 231910Z 24011G18KT 23/M05 A2998 RMK A01 T02281048  RH  016%=      5-min Rain = 0
KPT1 231915Z 24012G18KT 23/M05 A2997 RMK A01 T02341045  RH  015%=      5-min Rain = 0
KPT1 231920Z 24014G20KT 23/M05 A2997 RMK A01 T02331050  RH  015%=      5-min Rain = 0
KPT1 231925Z 23013G19KT 23/M05 A2997 RMK A01 T02331052  RH  015%=      5-min Rain = 0
KPT1 231930Z 25016G23KT 23/M05 A2997 RMK A01 T02311052  RH  015%=      5-min Rain = 0
KPT1 231935Z 25016G22KT 23/M05 A2997 RMK A01 T02321053  RH  015%=      5-min Rain = 0
KPT1 231940Z 27013G18KT 23/M06 A2997 RMK A01 T02321056  RH  014%=      5-min Rain = 0
KPT1 231945Z 25014G21KT 24/M05 A2997 RMK A01 T02371053  RH  014%=      5-min Rain = 0
KPT1 231950Z 26015G20KT 24/M06 A2996 RMK A01 T02361057  RH  014%=      5-min Rain = 0
KPT1 231955Z 24014KT 24/M05 A2996 RMK A01 T02361054  RH  014%=      5-min Rain = 0
KPT1 232000Z 24013G18KT 23/M05 A2996 RMK A01 T02341053  RH  015%=      5-min Rain = 0
KPT1 232005Z 24012G21KT 24/M05 A2996 RMK A01 T02371051  RH  014%=      5-min Rain = 0
KPT1 232010Z 23013G19KT 24/M05 A2996 RMK A01 T02391049  RH  015%=      5-min Rain = 0
KPT1 232015Z 24011G18KT 24/M05 A2996 RMK A01 T02421050  RH  014%=      5-min Rain = 0
KPT1 232020Z 26015G22KT 24/M06 A2996 RMK A01 T02391058  RH  014%=      5-min Rain = 0
KPT1 232025Z 25018G24KT 24/M06 A2996 RMK A01 T02411058  RH  013%=      5-min Rain = 0
KPT1 232030Z 24017G23KT 24/M06 A2996 RMK A01 T02391059  RH  013%=      5-min Rain = 0
KPT1 232035Z 24016G22KT 24/M06 A2996 RMK A01 T02421058  RH  013%=      5-min Rain = 0
KPT1 232040Z 25017G25KT 24/M06 A2996 RMK A01 T02391064  RH  013%=      5-min Rain = 0
KPT1 232045Z 25015G22KT 24/M06 A2995 RMK A01 T02441062  RH  013%=      5-min Rain = 0
KPT1 232050Z 25015G22KT 25/M06 A2995 RMK A01 T02471057  RH  013%=      5-min Rain = 0
KPT1 232055Z 24015G21KT 24/M06 A2995 RMK A01 T02431058  RH  013%=      5-min Rain = 0
KPT1 232100Z 23017G25KT 24/M06 A2995 RMK A01 T02401063  RH  013%=      5-min Rain = 0
KPT1 232105Z 24015G22KT 24/M07 A2995 RMK A01 T02371066  RH  013%=      5-min Rain = 0
KPT1 232110Z 24011G16KT 23/M06 A2995 RMK A01 T02331062  RH  014%=      5-min Rain = 0
KPT1 232115Z 25012G19KT 23/M06 A2995 RMK A01 T02341063  RH  013%=      5-min Rain = 0
KPT1 232120Z 25017G22KT 24/M06 A2994 RMK A01 T02351064  RH  013%=      5-min Rain = 0
KPT1 232125Z 25016G23KT 24/M06 A2995 RMK A01 T02351063  RH  013%=      5-min Rain = 0
KPT1 232130Z 24015KT 24/M06 A2995 RMK A01 T02371064  RH  013%=      5-min Rain = 0
KPT1 232135Z 25015G22KT 24/M06 A2994 RMK A01 T02381063  RH  013%=      5-min Rain = 0
KPT1 232140Z 25013KT 24/M06 A2995 RMK A01 T02391064  RH  013%=      5-min Rain = 0
KPT1 232145Z 25013G19KT 24/M07 A2994 RMK A01 T02411066  RH  013%=      5-min Rain = 0
KPT1 232150Z 24015G20KT 24/M07 A2994 RMK A01 T02401067  RH  013%=      5-min Rain = 0
KPT1 232155Z 24013G19KT 25/M06 A2994 RMK A01 T02451063  RH  013%=      5-min Rain = 0
KPT1 232200Z 24015G20KT 24/M07 A2994 RMK A01 T02441066  RH  012%=      5-min Rain = 0
KPT1 232205Z 23015G22KT 24/M07 A2994 RMK A01 T02391068  RH  013%=      5-min Rain = 0
KPT1 232210Z 24011G19KT 24/M07 A2994 RMK A01 T02381070  RH  012%=      5-min Rain = 0
KPT1 232215Z 24015G24KT 24/M07 A2994 RMK A01 T02381073  RH  012%=      5-min Rain = 0
KPT1 232220Z 24013G18KT 24/M08 A2994 RMK A01 T02371077  RH  012%=      5-min Rain = 0
KPT1 232225Z 25015G23KT 24/M08 A2994 RMK A01 T02361075  RH  012%=      5-min Rain = 0
KPT1 232230Z 25012G20KT 24/M08 A2994 RMK A01 T02411076  RH  012%=      5-min Rain = 0
KPT1 232235Z 25015G20KT 24/M08 A2993 RMK A01 T02391079  RH  012%=      5-min Rain = 0
KPT1 232240Z 25012KT 24/M08 A2994 RMK A01 T02381077  RH  012%=      5-min Rain = 0
KPT1 232245Z 24012G17KT 24/M07 A2994 RMK A01 T02381074  RH  012%=      5-min Rain = 0
KPT1 232250Z 24010KT 24/M07 A2993 RMK A01 T02381072  RH  012%=      5-min Rain = 0
KPT1 232255Z 24010KT 24/M07 A2993 RMK A01 T02351070  RH  013%=      5-min Rain = 0
KPT1 232300Z 26011KT 24/M07 A2993 RMK A01 T02361069  RH  013%=      5-min Rain = 0
KPT1 232305Z 23010KT 23/M08 A2993 RMK A01 T02331075  RH  012%=      5-min Rain = 0
KPT1 232310Z 23013G19KT 23/M08 A2993 RMK A01 T02321080  RH  012%=      5-min Rain = 0
KPT1 232315Z 24013G19KT 23/M09 A2993 RMK A01 T02341093  RH  011%=      5-min Rain = 0
KPT1 232320Z 24013G20KT 24/M09 A2993 RMK A01 T02361092  RH  011%=      5-min Rain = 0
KPT1 232325Z 24012G17KT 24/M09 A2993 RMK A01 T02351090  RH  011%=      5-min Rain = 0
KPT1 232330Z 23011G16KT 23/M09 A2993 RMK A01 T02331090  RH  011%=      5-min Rain = 0
KPT1 232335Z 25009G17KT 23/M08 A2993 RMK A01 T02321084  RH  012%=      5-min Rain = 0
KPT1 232340Z 24010G15KT 23/M08 A2993 RMK A01 T02301082  RH  012%=      5-min Rain = 0
KPT1 232345Z 24010KT 23/M09 A2993 RMK A01 T02301087  RH  011%=      5-min Rain = 0
KPT1 232350Z 24010G15KT 23/M09 A2993 RMK A01 T02311088  RH  011%=      5-min Rain = 0
KPT1 232355Z 24007KT 24/M08 A2993 RMK A01 T02391083  RH  011%=      5-min Rain = 0
KPT1 240000Z 25008KT 24/M08 A2993 RMK A01 T02411081  RH  011%=      5-min Rain = 0
KPT1 240005Z 25010KT 24/M09 A2993 RMK A01 T02361085  RH  011%=      5-min Rain = 0
KPT1 240010Z 24010KT 23/M09 A2993 RMK A01 T02321087  RH  011%=      5-min Rain = 0
KPT1 240015Z 23008KT 23/M09 A2993 RMK A01 T02271086  RH  012%=      5-min Rain = 0
KPT1 240020Z 23007G13KT 23/M09 A2993 RMK A01 T02261087  RH  012%=      5-min Rain = 0
KPT1 240025Z 23008KT 23/M08 A2993 RMK A01 T02251080  RH  012%=      5-min Rain = 0
KPT1 240030Z 21009KT 22/M08 A2993 RMK A01 T02211075  RH  013%=      5-min Rain = 0
KPT1 240035Z 21007KT 22/M07 A2993 RMK A01 T02191073  RH  014%=      5-min Rain = 0
KPT1 240040Z 21007KT 22/M07 A2993 RMK A01 T02171070  RH  014%=      5-min Rain = 0
KPT1 240045Z 21007KT 21/M07 A2993 RMK A01 T02131067  RH  015%=      5-min Rain = 0
KPT1 240050Z 21007KT 21/M07 A2993 RMK A01 T02101065  RH  015%=      5-min Rain = 0
KPT1 240055Z 21006KT 21/M06 A2993 RMK A01 T02081064  RH  016%=      5-min Rain = 0
KPT1 240100Z 21006KT 20/M06 A2993 RMK A01 T02041062  RH  016%=      5-min Rain = 0
KPT1 240105Z 21006KT 20/M06 A2993 RMK A01 T02011062  RH  017%=      5-min Rain = 0
KPT1 240110Z 21006KT 20/M06 A2993 RMK A01 T01991062  RH  017%=      5-min Rain = 0
KPT1 240115Z 21006KT 20/M06 A2994 RMK A01 T01961060  RH  017%=      5-min Rain = 0
KPT1 240120Z 22006KT 19/M06 A2994 RMK A01 T01941059  RH  018%=      5-min Rain = 0
KPT1 240125Z 22005KT 19/M06 A2994 RMK A01 T01921058  RH  018%=      5-min Rain = 0
KPT1 240130Z 22005KT 19/M06 A2994 RMK A01 T01901058  RH  018%=      5-min Rain = 0
KPT1 240135Z 23006KT 19/M06 A2995 RMK A01 T01871058  RH  019%=      5-min Rain = 0
KPT1 240140Z 24005KT 19/M06 A2995 RMK A01 T01851057  RH  019%=      5-min Rain = 0
KPT1 240145Z 25005KT 18/M05 A2995 RMK A01 T01801052  RH  020%=      5-min Rain = 0
KPT1 240150Z 23005KT 18/M05 A2995 RMK A01 T01781054  RH  020%=      5-min Rain = 0
KPT1 240155Z 23006KT 18/M06 A2996 RMK A01 T01781055  RH  020%=      5-min Rain = 0
KPT1 240200Z 23006KT 18/M05 A2996 RMK A01 T01761054  RH  021%=      5-min Rain = 0
KPT1 240205Z 24006KT 17/M05 A2996 RMK A01 T01731052  RH  021%=      5-min Rain = 0
KPT1 240210Z 25006KT 17/M04 A2996 RMK A01 T01661041  RH  024%=      5-min Rain = 0
KPT1 240215Z 24006KT 16/M04 A2997 RMK A01 T01571035  RH  027%=      5-min Rain = 0
KPT1 240220Z 24006KT 16/M03 A2997 RMK A01 T01561034  RH  027%=      5-min Rain = 0
KPT1 240225Z 24006KT 16/M04 A2997 RMK A01 T01581035  RH  027%=      5-min Rain = 0
KPT1 240230Z 25006KT 16/M03 A2998 RMK A01 T01551033  RH  028%=      5-min Rain = 0
KPT1 240235Z 26007KT 15/M03 A2998 RMK A01 T01491030  RH  029%=      5-min Rain = 0
KPT1 240240Z 25008KT 15/M03 A2998 RMK A01 T01491030  RH  029%=      5-min Rain = 0
KPT1 240245Z 25008KT 15/M03 A2998 RMK A01 T01461029  RH  030%=      5-min Rain = 0
KPT1 240250Z 26008KT 14/M03 A2998 RMK A01 T01421028  RH  031%=      5-min Rain = 0
KPT1 240255Z 25008KT 14/M03 A2998 RMK A01 T01421029  RH  031%=      5-min Rain = 0
KPT1 240300Z 25008KT 15/M03 A2998 RMK A01 T01471033  RH  029%=      5-min Rain = 0
KPT1 240305Z 25008KT 15/M03 A2999 RMK A01 T01481032  RH  029%=      5-min Rain = 0
KPT1 240310Z 26008KT 14/M03 A2999 RMK A01 T01421030  RH  031%=      5-min Rain = 0
KPT1 240315Z 26007KT 14/M03 A2999 RMK A01 T01401031  RH  031%=      5-min Rain = 0
KPT1 240320Z 26007KT 14/M03 A2999 RMK A01 T01401032  RH  031%=      5-min Rain = 0
KPT1 240325Z 25007KT 14/M04 A2999 RMK A01 T01431035  RH  029%=      5-min Rain = 0
KPT1 240330Z 26007KT 14/M04 A2999 RMK A01 T01431035  RH  029%=      5-min Rain = 0
KPT1 240335Z 25007KT 14/M04 A2999 RMK A01 T01441036  RH  029%=      5-min Rain = 0
KPT1 240340Z 25007KT 15/M04 A2999 RMK A01 T01451037  RH  029%=      5-min Rain = 0
KPT1 240345Z 25007KT 14/M04 A2999 RMK A01 T01421036  RH  029%=      5-min Rain = 0
KPT1 240350Z 24007KT 14/M04 A2999 RMK A01 T01421036  RH  029%=      5-min Rain = 0
KPT1 240355Z 24007KT 14/M04 A2999 RMK A01 T01431036  RH  029%=      5-min Rain = 0
KPT1 240400Z 25007KT 14/M04 A2999 RMK A01 T01431036  RH  029%=      5-min Rain = 0
KPT1 240405Z 25007KT 14/M04 A2999 RMK A01 T01411035  RH  030%=      5-min Rain = 0
KPT1 240410Z 24007KT 14/M04 A2999 RMK A01 T01381035  RH  030%=      5-min Rain = 0
KPT1 240415Z 25007KT 14/M04 A2999 RMK A01 T01391036  RH  030%=      5-min Rain = 0
KPT1 240420Z 25007KT 14/M03 A30 RMK A01 T01361034  RH  031%=      5-min Rain = 0
KPT1 240425Z 24007KT 14/M04 A2999 RMK A01 T01361036  RH  030%=      5-min Rain = 0
KPT1 240430Z 25007KT 14/M04 A2999 RMK A01 T01391037  RH  030%=      5-min Rain = 0
KPT1 240435Z 25007KT 14/M04 A2999 RMK A01 T01371036  RH  030%=      5-min Rain = 0
KPT1 240440Z 25008KT 13/M03 A2999 RMK A01 T01331034  RH  032%=      5-min Rain = 0
KPT1 240445Z 24007KT 13/M04 A2999 RMK A01 T01331035  RH  031%=      5-min Rain = 0
KPT1 240450Z 25007KT 13/M04 A2999 RMK A01 T01341035  RH  031%=      5-min Rain = 0
KPT1 240455Z 25007KT 13/M03 A2999 RMK A01 T01301034  RH  032%=      5-min Rain = 0

Page generated in 0.0091 seconds.